sensor_id;sensor_type;location;lat;lon;timestamp;temperature;humidity
4699;DHT22;33708;49.466;11.176;2022-10-26T00:02:19;7.80;99.90
4699;DHT22;33708;49.466;11.176;2022-10-26T00:04:45;7.80;99.90
4699;DHT22;33708;49.466;11.176;2022-10-26T00:07:11;7.70;99.90
4699;DHT22;33708;49.466;11.176;2022-10-26T00:09:39;7.80;99.90
4699;DHT22;33708;49.466;11.176;2022-10-26T00:12:05;8.00;99.90
4699;DHT22;33708;49.466;11.176;2022-10-26T00:14:33;7.70;99.90
4699;DHT22;33708;49.466;11.176;2022-10-26T00:17:00;7.80;99.90
4699;DHT22;33708;49.466;11.176;2022-10-26T00:19:26;7.90;99.90
4699;DHT22;33708;49.466;11.176;2022-10-26T00:21:56;8.00;99.90
4699;DHT22;33708;49.466;11.176;2022-10-26T00:24:23;8.10;99.90
4699;DHT22;33708;49.466;11.176;2022-10-26T00:26:48;8.00;99.90
4699;DHT22;33708;49.466;11.176;2022-10-26T00:29:16;8.00;99.90
4699;DHT22;33708;49.466;11.176;2022-10-26T00:31:43;7.90;99.90
4699;DHT22;33708;49.466;11.176;2022-10-26T00:34:10;7.80;99.90
4699;DHT22;33708;49.466;11.176;2022-10-26T00:36:37;7.80;99.90
4699;DHT22;33708;49.466;11.176;2022-10-26T00:39:03;8.20;99.90
4699;DHT22;33708;49.466;11.176;2022-10-26T00:41:34;7.20;99.90
4699;DHT22;33708;49.466;11.176;2022-10-26T00:47:12;8.20;99.90
4699;DHT22;33708;49.466;11.176;2022-10-26T00:49:51;8.40;99.90
4699;DHT22;33708;49.466;11.176;2022-10-26T00:52:23;8.00;99.90
4699;DHT22;33708;49.466;11.176;2022-10-26T00:54:52;8.70;99.90
4699;DHT22;33708;49.466;11.176;2022-10-26T00:57:27;8.70;99.90
4699;DHT22;33708;49.466;11.176;2022-10-26T00:59:56;7.20;99.90
4699;DHT22;33708;49.466;11.176;2022-10-26T01:02:23;8.90;99.90
4699;DHT22;33708;49.466;11.176;2022-10-26T01:04:51;8.90;99.90
4699;DHT22;33708;49.466;11.176;2022-10-26T01:07:18;8.70;99.90
4699;DHT22;33708;49.466;11.176;2022-10-26T01:09:47;8.80;99.90
4699;DHT22;33708;49.466;11.176;2022-10-26T01:12:13;11.00;99.90
4699;DHT22;33708;49.466;11.176;2022-10-26T01:14:39;8.70;99.90
4699;DHT22;33708;49.466;11.176;2022-10-26T01:17:14;8.70;99.90
4699;DHT22;33708;49.466;11.176;2022-10-26T01:22:56;8.90;99.90
4699;DHT22;33708;49.466;11.176;2022-10-26T01:25:32;9.00;99.90
4699;DHT22;33708;49.466;11.176;2022-10-26T01:28:18;9.10;99.90
4699;DHT22;33708;49.466;11.176;2022-10-26T01:30:45;9.20;99.90
4699;DHT22;33708;49.466;11.176;2022-10-26T01:33:34;9.10;99.90
4699;DHT22;33708;49.466;11.176;2022-10-26T01:41:27;9.10;99.90
4699;DHT22;33708;49.466;11.176;2022-10-26T01:44:18;9.10;99.90
4699;DHT22;33708;49.466;11.176;2022-10-26T01:46:46;9.20;99.90
4699;DHT22;33708;49.466;11.176;2022-10-26T01:49:14;9.10;99.90
4699;DHT22;33708;49.466;11.176;2022-10-26T01:51:42;9.20;99.90
4699;DHT22;33708;49.466;11.176;2022-10-26T01:54:08;9.30;99.90
4699;DHT22;33708;49.466;11.176;2022-10-26T01:56:38;9.50;99.90
4699;DHT22;33708;49.466;11.176;2022-10-26T02:07:33;9.60;99.90
4699;DHT22;33708;49.466;11.176;2022-10-26T02:10:15;9.60;99.90
4699;DHT22;33708;49.466;11.176;2022-10-26T02:13:09;9.60;99.90
4699;DHT22;33708;49.466;11.176;2022-10-26T02:15:53;9.70;99.90
4699;DHT22;33708;49.466;11.176;2022-10-26T02:21:06;9.70;99.90
4699;DHT22;33708;49.466;11.176;2022-10-26T02:23:36;9.90;99.90
4699;DHT22;33708;49.466;11.176;2022-10-26T02:26:05;9.80;99.90
4699;DHT22;33708;49.466;11.176;2022-10-26T02:28:37;9.80;99.90
4699;DHT22;33708;49.466;11.176;2022-10-26T02:31:05;9.80;99.90
4699;DHT22;33708;49.466;11.176;2022-10-26T02:33:36;9.70;99.90
4699;DHT22;33708;49.466;11.176;2022-10-26T02:36:06;9.80;99.90
4699;DHT22;33708;49.466;11.176;2022-10-26T02:38:33;9.70;99.90
4699;DHT22;33708;49.466;11.176;2022-10-26T02:41:00;9.40;99.90
4699;DHT22;33708;49.466;11.176;2022-10-26T02:43:28;9.40;99.90
4699;DHT22;33708;49.466;11.176;2022-10-26T02:46:15;9.30;99.90
4699;DHT22;33708;49.466;11.176;2022-10-26T02:48:42;9.40;99.90
4699;DHT22;33708;49.466;11.176;2022-10-26T02:51:34;9.60;99.90
4699;DHT22;33708;49.466;11.176;2022-10-26T02:57:06;9.60;99.90
4699;DHT22;33708;49.466;11.176;2022-10-26T02:59:35;9.60;99.90
4699;DHT22;33708;49.466;11.176;2022-10-26T03:02:03;9.80;99.90
4699;DHT22;33708;49.466;11.176;2022-10-26T03:04:30;10.00;99.90
4699;DHT22;33708;49.466;11.176;2022-10-26T03:06:56;10.10;99.90
4699;DHT22;33708;49.466;11.176;2022-10-26T03:09:22;9.90;99.90
4699;DHT22;33708;49.466;11.176;2022-10-26T03:11:48;10.00;99.90
4699;DHT22;33708;49.466;11.176;2022-10-26T03:14:13;10.10;99.90
4699;DHT22;33708;49.466;11.176;2022-10-26T03:16:39;10.10;99.90
4699;DHT22;33708;49.466;11.176;2022-10-26T03:19:05;10.10;99.90
4699;DHT22;33708;49.466;11.176;2022-10-26T03:21:30;9.80;99.90
4699;DHT22;33708;49.466;11.176;2022-10-26T03:23:56;9.70;99.90
4699;DHT22;33708;49.466;11.176;2022-10-26T03:26:22;9.70;99.90
4699;DHT22;33708;49.466;11.176;2022-10-26T03:28:47;9.90;99.90
4699;DHT22;33708;49.466;11.176;2022-10-26T03:31:13;10.00;99.90
4699;DHT22;33708;49.466;11.176;2022-10-26T03:33:39;10.10;99.90
4699;DHT22;33708;49.466;11.176;2022-10-26T03:36:04;10.00;99.90
4699;DHT22;33708;49.466;11.176;2022-10-26T03:38:30;10.00;99.90
4699;DHT22;33708;49.466;11.176;2022-10-26T03:40:56;10.00;99.90
4699;DHT22;33708;49.466;11.176;2022-10-26T03:43:21;9.90;99.90
4699;DHT22;33708;49.466;11.176;2022-10-26T03:45:47;9.80;99.90
4699;DHT22;33708;49.466;11.176;2022-10-26T03:48:13;9.90;99.90
4699;DHT22;33708;49.466;11.176;2022-10-26T03:50:39;10.10;99.90
4699;DHT22;33708;49.466;11.176;2022-10-26T03:53:05;10.20;99.90
4699;DHT22;33708;49.466;11.176;2022-10-26T03:55:30;10.40;99.90
4699;DHT22;33708;49.466;11.176;2022-10-26T03:57:56;10.50;99.90
4699;DHT22;33708;49.466;11.176;2022-10-26T04:00:21;10.40;99.90
4699;DHT22;33708;49.466;11.176;2022-10-26T04:02:54;10.40;99.90
4699;DHT22;33708;49.466;11.176;2022-10-26T04:05:20;10.30;99.90
4699;DHT22;33708;49.466;11.176;2022-10-26T04:07:56;10.20;99.90
4699;DHT22;33708;49.466;11.176;2022-10-26T04:10:24;10.30;99.90
4699;DHT22;33708;49.466;11.176;2022-10-26T04:12:50;10.30;99.90
4699;DHT22;33708;49.466;11.176;2022-10-26T04:15:16;10.40;99.90
4699;DHT22;33708;49.466;11.176;2022-10-26T04:17:42;10.30;99.90
4699;DHT22;33708;49.466;11.176;2022-10-26T04:20:08;10.20;99.90
4699;DHT22;33708;49.466;11.176;2022-10-26T04:22:34;10.50;99.90
4699;DHT22;33708;49.466;11.176;2022-10-26T04:25:02;10.60;99.90
4699;DHT22;33708;49.466;11.176;2022-10-26T04:27:28;10.60;99.90
4699;DHT22;33708;49.466;11.176;2022-10-26T04:29:53;10.50;99.90
4699;DHT22;33708;49.466;11.176;2022-10-26T04:32:19;10.60;99.90
4699;DHT22;33708;49.466;11.176;2022-10-26T04:34:44;10.70;99.90
4699;DHT22;33708;49.466;11.176;2022-10-26T04:37:10;10.70;99.90
4699;DHT22;33708;49.466;11.176;2022-10-26T04:39:36;10.70;99.90
4699;DHT22;33708;49.466;11.176;2022-10-26T04:42:01;10.80;99.90
4699;DHT22;33708;49.466;11.176;2022-10-26T04:44:27;11.00;99.90
4699;DHT22;33708;49.466;11.176;2022-10-26T04:46:53;11.00;99.90
4699;DHT22;33708;49.466;11.176;2022-10-26T04:49:18;10.90;99.90
4699;DHT22;33708;49.466;11.176;2022-10-26T04:51:44;10.70;99.90
4699;DHT22;33708;49.466;11.176;2022-10-26T04:54:09;10.70;99.90
4699;DHT22;33708;49.466;11.176;2022-10-26T04:56:35;10.60;99.90
4699;DHT22;33708;49.466;11.176;2022-10-26T04:59:01;10.70;99.90
4699;DHT22;33708;49.466;11.176;2022-10-26T05:01:26;10.80;99.90
4699;DHT22;33708;49.466;11.176;2022-10-26T05:03:52;10.80;99.90
4699;DHT22;33708;49.466;11.176;2022-10-26T05:06:19;10.60;99.90
4699;DHT22;33708;49.466;11.176;2022-10-26T05:08:45;10.50;99.90
4699;DHT22;33708;49.466;11.176;2022-10-26T05:11:11;10.50;99.90
4699;DHT22;33708;49.466;11.176;2022-10-26T05:13:36;10.40;99.90
4699;DHT22;33708;49.466;11.176;2022-10-26T05:16:02;10.50;99.90
4699;DHT22;33708;49.466;11.176;2022-10-26T05:18:28;10.50;99.90
4699;DHT22;33708;49.466;11.176;2022-10-26T05:20:54;10.50;99.90
4699;DHT22;33708;49.466;11.176;2022-10-26T05:23:20;10.50;99.90
4699;DHT22;33708;49.466;11.176;2022-10-26T05:25:46;10.60;99.90
4699;DHT22;33708;49.466;11.176;2022-10-26T05:28:13;10.50;99.90
4699;DHT22;33708;49.466;11.176;2022-10-26T05:30:40;10.50;99.90
4699;DHT22;33708;49.466;11.176;2022-10-26T05:33:08;10.80;99.90
4699;DHT22;33708;49.466;11.176;2022-10-26T05:35:34;10.00;99.90
4699;DHT22;33708;49.466;11.176;2022-10-26T05:38:06;11.10;99.90
4699;DHT22;33708;49.466;11.176;2022-10-26T05:40:32;10.90;99.90
4699;DHT22;33708;49.466;11.176;2022-10-26T05:42:59;10.90;99.90
4699;DHT22;33708;49.466;11.176;2022-10-26T05:45:26;11.00;99.90
4699;DHT22;33708;49.466;11.176;2022-10-26T05:47:51;11.00;99.90
4699;DHT22;33708;49.466;11.176;2022-10-26T05:50:17;10.90;99.90
4699;DHT22;33708;49.466;11.176;2022-10-26T05:52:45;10.90;99.90
4699;DHT22;33708;49.466;11.176;2022-10-26T05:55:13;10.90;99.90
4699;DHT22;33708;49.466;11.176;2022-10-26T05:57:39;11.00;99.90
4699;DHT22;33708;49.466;11.176;2022-10-26T06:00:18;11.10;99.90
4699;DHT22;33708;49.466;11.176;2022-10-26T06:05:49;11.00;99.90
4699;DHT22;33708;49.466;11.176;2022-10-26T06:08:16;10.90;99.90
4699;DHT22;33708;49.466;11.176;2022-10-26T06:10:41;10.90;99.90
4699;DHT22;33708;49.466;11.176;2022-10-26T06:13:07;10.90;99.90
4699;DHT22;33708;49.466;11.176;2022-10-26T06:15:39;11.00;99.90
4699;DHT22;33708;49.466;11.176;2022-10-26T06:18:20;10.90;99.90
4699;DHT22;33708;49.466;11.176;2022-10-26T06:21:28;10.90;99.90
4699;DHT22;33708;49.466;11.176;2022-10-26T06:24:01;10.90;99.90
4699;DHT22;33708;49.466;11.176;2022-10-26T06:26:47;11.10;99.90
4699;DHT22;33708;49.466;11.176;2022-10-26T06:31:54;11.30;99.90
4699;DHT22;33708;49.466;11.176;2022-10-26T06:34:33;11.50;99.90
4699;DHT22;33708;49.466;11.176;2022-10-26T06:37:00;11.50;99.90
4699;DHT22;33708;49.466;11.176;2022-10-26T06:39:29;11.50;99.90
4699;DHT22;33708;49.466;11.176;2022-10-26T06:41:56;11.70;99.90
4699;DHT22;33708;49.466;11.176;2022-10-26T06:44:22;12.10;99.90
4699;DHT22;33708;49.466;11.176;2022-10-26T06:47:22;12.30;99.90
4699;DHT22;33708;49.466;11.176;2022-10-26T06:50:25;12.50;99.90
4699;DHT22;33708;49.466;11.176;2022-10-26T06:53:28;14.90;99.90
4699;DHT22;33708;49.466;11.176;2022-10-26T06:55:58;17.60;99.90
4699;DHT22;33708;49.466;11.176;2022-10-26T06:58:27;19.20;99.90
4699;DHT22;33708;49.466;11.176;2022-10-26T07:00:54;19.50;99.90
4699;DHT22;33708;49.466;11.176;2022-10-26T07:03:20;18.60;99.90
4699;DHT22;33708;49.466;11.176;2022-10-26T07:05:46;17.00;99.90
4699;DHT22;33708;49.466;11.176;2022-10-26T07:08:12;15.70;99.90
4699;DHT22;33708;49.466;11.176;2022-10-26T07:10:38;15.30;99.90
4699;DHT22;33708;49.466;11.176;2022-10-26T07:13:08;14.50;99.90
4699;DHT22;33708;49.466;11.176;2022-10-26T07:15:35;14.30;99.90
4699;DHT22;33708;49.466;11.176;2022-10-26T07:18:02;13.80;99.90
4699;DHT22;33708;49.466;11.176;2022-10-26T07:20:30;14.00;99.90
4699;DHT22;33708;49.466;11.176;2022-10-26T07:22:56;14.20;99.90
4699;DHT22;33708;49.466;11.176;2022-10-26T07:25:24;14.20;99.90
4699;DHT22;33708;49.466;11.176;2022-10-26T07:27:50;14.30;99.90
4699;DHT22;33708;49.466;11.176;2022-10-26T07:30:15;14.20;99.90
4699;DHT22;33708;49.466;11.176;2022-10-26T07:32:41;14.40;99.90
4699;DHT22;33708;49.466;11.176;2022-10-26T07:35:07;14.50;99.90
4699;DHT22;33708;49.466;11.176;2022-10-26T07:37:32;14.70;99.90
4699;DHT22;33708;49.466;11.176;2022-10-26T07:39:58;14.60;99.90
4699;DHT22;33708;49.466;11.176;2022-10-26T07:42:24;14.50;99.90
4699;DHT22;33708;49.466;11.176;2022-10-26T07:44:49;14.40;99.90
4699;DHT22;33708;49.466;11.176;2022-10-26T07:47:15;14.30;99.90
4699;DHT22;33708;49.466;11.176;2022-10-26T07:49:41;14.30;99.90
4699;DHT22;33708;49.466;11.176;2022-10-26T07:52:07;14.60;99.90
4699;DHT22;33708;49.466;11.176;2022-10-26T07:54:33;14.50;99.90
4699;DHT22;33708;49.466;11.176;2022-10-26T07:56:59;14.50;99.90
4699;DHT22;33708;49.466;11.176;2022-10-26T07:59:25;14.60;99.90
4699;DHT22;33708;49.466;11.176;2022-10-26T08:01:51;14.70;99.90
4699;DHT22;33708;49.466;11.176;2022-10-26T08:04:17;14.50;99.90
4699;DHT22;33708;49.466;11.176;2022-10-26T08:06:42;14.70;99.90
4699;DHT22;33708;49.466;11.176;2022-10-26T08:09:08;14.60;99.90
4699;DHT22;33708;49.466;11.176;2022-10-26T08:11:34;14.60;99.90
4699;DHT22;33708;49.466;11.176;2022-10-26T08:14:02;14.70;99.90
4699;DHT22;33708;49.466;11.176;2022-10-26T08:16:28;14.50;99.90
4699;DHT22;33708;49.466;11.176;2022-10-26T08:18:54;14.40;99.90
4699;DHT22;33708;49.466;11.176;2022-10-26T08:21:19;14.50;99.90
4699;DHT22;33708;49.466;11.176;2022-10-26T08:23:45;14.70;99.90
4699;DHT22;33708;49.466;11.176;2022-10-26T08:26:11;14.50;99.90
4699;DHT22;33708;49.466;11.176;2022-10-26T08:28:37;14.60;99.90
4699;DHT22;33708;49.466;11.176;2022-10-26T08:31:03;14.80;99.90
4699;DHT22;33708;49.466;11.176;2022-10-26T08:33:29;14.80;99.90
4699;DHT22;33708;49.466;11.176;2022-10-26T08:35:56;14.80;99.90
4699;DHT22;33708;49.466;11.176;2022-10-26T08:38:22;14.80;99.90
4699;DHT22;33708;49.466;11.176;2022-10-26T08:40:47;15.00;99.90
4699;DHT22;33708;49.466;11.176;2022-10-26T08:45:54;16.00;99.90
4699;DHT22;33708;49.466;11.176;2022-10-26T08:48:26;16.50;99.90
4699;DHT22;33708;49.466;11.176;2022-10-26T08:51:00;17.70;99.90
4699;DHT22;33708;49.466;11.176;2022-10-26T08:53:39;18.70;99.90
4699;DHT22;33708;49.466;11.176;2022-10-26T09:01:54;17.30;99.90
4699;DHT22;33708;49.466;11.176;2022-10-26T09:04:25;17.60;99.90
4699;DHT22;33708;49.466;11.176;2022-10-26T09:12:51;17.30;99.90
4699;DHT22;33708;49.466;11.176;2022-10-26T09:15:27;16.80;99.90
4699;DHT22;33708;49.466;11.176;2022-10-26T09:18:33;16.00;99.90
4699;DHT22;33708;49.466;11.176;2022-10-26T09:26:02;17.00;99.90
4699;DHT22;33708;49.466;11.176;2022-10-26T09:28:36;17.30;99.90
4699;DHT22;33708;49.466;11.176;2022-10-26T09:31:03;17.40;99.90
4699;DHT22;33708;49.466;11.176;2022-10-26T09:33:33;17.60;99.90
4699;DHT22;33708;49.466;11.176;2022-10-26T09:36:01;17.50;99.90
4699;DHT22;33708;49.466;11.176;2022-10-26T09:38:33;17.80;99.90
4699;DHT22;33708;49.466;11.176;2022-10-26T09:46:32;18.60;99.90
4699;DHT22;33708;49.466;11.176;2022-10-26T09:49:03;18.70;99.90
4699;DHT22;33708;49.466;11.176;2022-10-26T09:51:37;19.00;99.90
4699;DHT22;33708;49.466;11.176;2022-10-26T09:54:15;19.30;99.90
4699;DHT22;33708;49.466;11.176;2022-10-26T09:56:45;19.30;99.90
4699;DHT22;33708;49.466;11.176;2022-10-26T09:59:12;19.00;99.90
4699;DHT22;33708;49.466;11.176;2022-10-26T10:01:38;19.00;99.90
4699;DHT22;33708;49.466;11.176;2022-10-26T10:06:42;18.90;99.90
4699;DHT22;33708;49.466;11.176;2022-10-26T10:09:13;18.80;99.90
4699;DHT22;33708;49.466;11.176;2022-10-26T10:12:00;18.80;99.90
4699;DHT22;33708;49.466;11.176;2022-10-26T10:14:28;18.80;99.90
4699;DHT22;33708;49.466;11.176;2022-10-26T10:17:20;18.80;99.90
4699;DHT22;33708;49.466;11.176;2022-10-26T10:19:47;18.70;99.90
4699;DHT22;33708;49.466;11.176;2022-10-26T10:24:57;19.30;99.90
4699;DHT22;33708;49.466;11.176;2022-10-26T10:27:24;19.50;99.90
4699;DHT22;33708;49.466;11.176;2022-10-26T10:29:54;19.40;99.90
4699;DHT22;33708;49.466;11.176;2022-10-26T10:32:27;19.60;99.90
4699;DHT22;33708;49.466;11.176;2022-10-26T10:34:56;19.70;99.90
4699;DHT22;33708;49.466;11.176;2022-10-26T10:37:26;19.80;99.90
4699;DHT22;33708;49.466;11.176;2022-10-26T10:40:08;19.70;99.90
4699;DHT22;33708;49.466;11.176;2022-10-26T10:42:40;19.60;99.90
4699;DHT22;33708;49.466;11.176;2022-10-26T10:45:34;19.70;99.90
4699;DHT22;33708;49.466;11.176;2022-10-26T10:48:04;20.00;99.90
4699;DHT22;33708;49.466;11.176;2022-10-26T10:50:59;20.10;99.90
4699;DHT22;33708;49.466;11.176;2022-10-26T10:53:34;19.90;99.90
4699;DHT22;33708;49.466;11.176;2022-10-26T10:58:51;19.70;97.90
4699;DHT22;33708;49.466;11.176;2022-10-26T11:01:21;19.70;99.10
4699;DHT22;33708;49.466;11.176;2022-10-26T11:06:38;19.30;96.20
4699;DHT22;33708;49.466;11.176;2022-10-26T11:09:11;19.50;98.40
4699;DHT22;33708;49.466;11.176;2022-10-26T11:11:47;19.60;99.10
4699;DHT22;33708;49.466;11.176;2022-10-26T11:14:22;19.70;99.30
4699;DHT22;33708;49.466;11.176;2022-10-26T11:16:58;19.70;98.10
4699;DHT22;33708;49.466;11.176;2022-10-26T11:20:12;19.40;95.90
4699;DHT22;33708;49.466;11.176;2022-10-26T11:22:25;19.40;98.80
4699;DHT22;33708;49.466;11.176;2022-10-26T11:24:56;19.40;99.90
4699;DHT22;33708;49.466;11.176;2022-10-26T11:27:52;19.30;99.80
4699;DHT22;33708;49.466;11.176;2022-10-26T11:30:21;19.40;99.90
4699;DHT22;33708;49.466;11.176;2022-10-26T11:32:55;19.20;99.90
4699;DHT22;33708;49.466;11.176;2022-10-26T11:35:43;19.10;99.90
4699;DHT22;33708;49.466;11.176;2022-10-26T11:46:09;18.60;99.90
4699;DHT22;33708;49.466;11.176;2022-10-26T11:48:55;18.60;99.90
4699;DHT22;33708;49.466;11.176;2022-10-26T11:53:56;18.60;99.90
4699;DHT22;33708;49.466;11.176;2022-10-26T11:56:30;18.60;99.90
4699;DHT22;33708;49.466;11.176;2022-10-26T11:58:57;18.80;99.90
4699;DHT22;33708;49.466;11.176;2022-10-26T12:01:24;19.00;99.90
4699;DHT22;33708;49.466;11.176;2022-10-26T12:03:52;19.00;99.90
4699;DHT22;33708;49.466;11.176;2022-10-26T12:06:24;19.50;99.90
4699;DHT22;33708;49.466;11.176;2022-10-26T12:11:44;19.90;99.90
4699;DHT22;33708;49.466;11.176;2022-10-26T12:19:28;19.50;99.90
4699;DHT22;33708;49.466;11.176;2022-10-26T12:21:56;19.40;99.90
4699;DHT22;33708;49.466;11.176;2022-10-26T12:26:58;18.90;99.90
4699;DHT22;33708;49.466;11.176;2022-10-26T12:29:37;18.90;99.90
4699;DHT22;33708;49.466;11.176;2022-10-26T12:37:34;19.30;99.90
4699;DHT22;33708;49.466;11.176;2022-10-26T12:40:51;19.20;99.90
4699;DHT22;33708;49.466;11.176;2022-10-26T12:45:45;19.30;99.90
4699;DHT22;33708;49.466;11.176;2022-10-26T12:48:38;19.40;99.90
4699;DHT22;33708;49.466;11.176;2022-10-26T12:51:17;19.30;99.90
4699;DHT22;33708;49.466;11.176;2022-10-26T12:56:58;19.20;99.90
4699;DHT22;33708;49.466;11.176;2022-10-26T12:59:45;19.20;99.90
4699;DHT22;33708;49.466;11.176;2022-10-26T13:07:48;19.60;99.90
4699;DHT22;33708;49.466;11.176;2022-10-26T13:12:59;19.40;99.90
4699;DHT22;33708;49.466;11.176;2022-10-26T13:15:30;19.40;99.90
4699;DHT22;33708;49.466;11.176;2022-10-26T13:18:13;19.40;99.90
4699;DHT22;33708;49.466;11.176;2022-10-26T13:21:08;19.50;99.90
4699;DHT22;33708;49.466;11.176;2022-10-26T13:23:41;19.30;99.90
4699;DHT22;33708;49.466;11.176;2022-10-26T13:26:08;19.30;99.90
4699;DHT22;33708;49.466;11.176;2022-10-26T13:31:03;19.40;99.90
4699;DHT22;33708;49.466;11.176;2022-10-26T13:33:41;19.20;99.90
4699;DHT22;33708;49.466;11.176;2022-10-26T13:36:26;19.40;99.90
4699;DHT22;33708;49.466;11.176;2022-10-26T13:38:53;19.90;99.90
4699;DHT22;33708;49.466;11.176;2022-10-26T13:41:33;19.90;99.90
4699;DHT22;33708;49.466;11.176;2022-10-26T13:44:04;19.80;99.90
4699;DHT22;33708;49.466;11.176;2022-10-26T13:46:34;19.70;99.90
4699;DHT22;33708;49.466;11.176;2022-10-26T13:49:06;19.60;99.90
4699;DHT22;33708;49.466;11.176;2022-10-26T13:51:42;19.70;99.90
4699;DHT22;33708;49.466;11.176;2022-10-26T13:57:09;19.40;99.90
4699;DHT22;33708;49.466;11.176;2022-10-26T13:59:38;19.50;99.90
4699;DHT22;33708;49.466;11.176;2022-10-26T14:02:28;19.50;99.90
4699;DHT22;33708;49.466;11.176;2022-10-26T14:05:02;19.60;99.90
4699;DHT22;33708;49.466;11.176;2022-10-26T14:07:42;19.50;99.90
4699;DHT22;33708;49.466;11.176;2022-10-26T14:10:23;19.40;99.90
4699;DHT22;33708;49.466;11.176;2022-10-26T14:12:50;19.40;99.90
4699;DHT22;33708;49.466;11.176;2022-10-26T14:15:26;19.30;99.90
4699;DHT22;33708;49.466;11.176;2022-10-26T14:17:54;19.20;99.90
4699;DHT22;33708;49.466;11.176;2022-10-26T14:20:22;19.10;99.90
4699;DHT22;33708;49.466;11.176;2022-10-26T14:22:48;18.90;99.90
4699;DHT22;33708;49.466;11.176;2022-10-26T14:25:21;18.80;99.90
4699;DHT22;33708;49.466;11.176;2022-10-26T14:27:49;18.70;99.90
4699;DHT22;33708;49.466;11.176;2022-10-26T14:32:46;18.80;99.90
4699;DHT22;33708;49.466;11.176;2022-10-26T14:35:13;18.80;99.90
4699;DHT22;33708;49.466;11.176;2022-10-26T14:37:55;18.70;99.90
4699;DHT22;33708;49.466;11.176;2022-10-26T14:40:24;18.70;99.90
4699;DHT22;33708;49.466;11.176;2022-10-26T14:42:59;18.60;99.90
4699;DHT22;33708;49.466;11.176;2022-10-26T14:45:33;18.40;99.90
4699;DHT22;33708;49.466;11.176;2022-10-26T14:48:00;18.20;99.90
4699;DHT22;33708;49.466;11.176;2022-10-26T14:50:26;18.00;99.90
4699;DHT22;33708;49.466;11.176;2022-10-26T14:53:16;17.80;99.90
4699;DHT22;33708;49.466;11.176;2022-10-26T14:55:51;17.90;99.90
4699;DHT22;33708;49.466;11.176;2022-10-26T14:58:23;18.00;99.90
4699;DHT22;33708;49.466;11.176;2022-10-26T15:01:21;18.10;99.90
4699;DHT22;33708;49.466;11.176;2022-10-26T15:03:55;17.90;99.90
4699;DHT22;33708;49.466;11.176;2022-10-26T15:08:54;17.60;99.90
4699;DHT22;33708;49.466;11.176;2022-10-26T15:11:20;17.50;99.90
4699;DHT22;33708;49.466;11.176;2022-10-26T15:13:46;17.40;99.90
4699;DHT22;33708;49.466;11.176;2022-10-26T15:16:17;17.30;99.90
4699;DHT22;33708;49.466;11.176;2022-10-26T15:18:45;17.10;99.90
4699;DHT22;33708;49.466;11.176;2022-10-26T15:21:30;17.10;99.90
4699;DHT22;33708;49.466;11.176;2022-10-26T15:23:57;17.00;99.90
4699;DHT22;33708;49.466;11.176;2022-10-26T15:26:23;17.10;99.90
4699;DHT22;33708;49.466;11.176;2022-10-26T15:28:49;17.00;99.90
4699;DHT22;33708;49.466;11.176;2022-10-26T15:36:23;17.00;99.90
4699;DHT22;33708;49.466;11.176;2022-10-26T15:38:49;17.00;99.90
4699;DHT22;33708;49.466;11.176;2022-10-26T15:43:52;16.90;99.90
4699;DHT22;33708;49.466;11.176;2022-10-26T15:46:18;17.00;99.90
4699;DHT22;33708;49.466;11.176;2022-10-26T15:48:56;16.90;99.90
4699;DHT22;33708;49.466;11.176;2022-10-26T15:51:23;17.00;99.90
4699;DHT22;33708;49.466;11.176;2022-10-26T15:53:49;16.80;99.90
4699;DHT22;33708;49.466;11.176;2022-10-26T15:56:20;16.70;99.90
4699;DHT22;33708;49.466;11.176;2022-10-26T15:58:48;16.70;99.90
4699;DHT22;33708;49.466;11.176;2022-10-26T16:01:15;16.60;99.90
4699;DHT22;33708;49.466;11.176;2022-10-26T16:03:41;16.70;99.90
4699;DHT22;33708;49.466;11.176;2022-10-26T16:06:28;16.70;99.90
4699;DHT22;33708;49.466;11.176;2022-10-26T16:08:57;16.70;99.90
4699;DHT22;33708;49.466;11.176;2022-10-26T16:11:23;16.60;99.90
4699;DHT22;33708;49.466;11.176;2022-10-26T16:13:49;16.60;99.90
4699;DHT22;33708;49.466;11.176;2022-10-26T16:16:16;16.60;99.90
4699;DHT22;33708;49.466;11.176;2022-10-26T16:18:42;16.60;99.90
4699;DHT22;33708;49.466;11.176;2022-10-26T16:21:13;16.50;99.90
4699;DHT22;33708;49.466;11.176;2022-10-26T16:23:39;16.60;99.90
4699;DHT22;33708;49.466;11.176;2022-10-26T16:26:05;16.70;99.90
4699;DHT22;33708;49.466;11.176;2022-10-26T16:28:31;16.60;99.90
4699;DHT22;33708;49.466;11.176;2022-10-26T16:30:59;16.50;99.90
4699;DHT22;33708;49.466;11.176;2022-10-26T16:33:24;16.50;99.90
4699;DHT22;33708;49.466;11.176;2022-10-26T16:35:59;16.40;99.90
4699;DHT22;33708;49.466;11.176;2022-10-26T16:38:25;16.50;99.90
4699;DHT22;33708;49.466;11.176;2022-10-26T16:41:02;16.40;99.90
4699;DHT22;33708;49.466;11.176;2022-10-26T16:43:33;16.40;99.90
4699;DHT22;33708;49.466;11.176;2022-10-26T16:45:59;16.40;99.90
4699;DHT22;33708;49.466;11.176;2022-10-26T16:48:27;16.40;99.90
4699;DHT22;33708;49.466;11.176;2022-10-26T16:50:52;16.40;99.90
4699;DHT22;33708;49.466;11.176;2022-10-26T16:53:18;16.40;99.90
4699;DHT22;33708;49.466;11.176;2022-10-26T16:55:44;16.40;99.90
4699;DHT22;33708;49.466;11.176;2022-10-26T16:58:09;16.40;99.90
4699;DHT22;33708;49.466;11.176;2022-10-26T17:00:36;16.30;99.90
4699;DHT22;33708;49.466;11.176;2022-10-26T17:03:02;16.40;99.90
4699;DHT22;33708;49.466;11.176;2022-10-26T17:05:28;16.40;99.90
4699;DHT22;33708;49.466;11.176;2022-10-26T17:07:54;16.40;99.90
4699;DHT22;33708;49.466;11.176;2022-10-26T17:10:19;16.30;99.90
4699;DHT22;33708;49.466;11.176;2022-10-26T17:12:45;16.40;99.90
4699;DHT22;33708;49.466;11.176;2022-10-26T17:15:11;16.40;99.90
4699;DHT22;33708;49.466;11.176;2022-10-26T17:17:36;16.40;99.90
4699;DHT22;33708;49.466;11.176;2022-10-26T17:20:03;16.40;99.90
4699;DHT22;33708;49.466;11.176;2022-10-26T17:22:28;16.40;99.90
4699;DHT22;33708;49.466;11.176;2022-10-26T17:24:54;16.40;99.90
4699;DHT22;33708;49.466;11.176;2022-10-26T17:27:20;16.30;99.90
4699;DHT22;33708;49.466;11.176;2022-10-26T17:29:47;16.30;99.90
4699;DHT22;33708;49.466;11.176;2022-10-26T17:32:13;16.10;99.90
4699;DHT22;33708;49.466;11.176;2022-10-26T17:34:39;16.00;99.90
4699;DHT22;33708;49.466;11.176;2022-10-26T17:37:05;15.80;99.90
4699;DHT22;33708;49.466;11.176;2022-10-26T17:39:30;15.80;99.90
4699;DHT22;33708;49.466;11.176;2022-10-26T17:41:56;15.60;99.90
4699;DHT22;33708;49.466;11.176;2022-10-26T17:44:21;15.40;99.90
4699;DHT22;33708;49.466;11.176;2022-10-26T17:46:47;15.30;99.90
4699;DHT22;33708;49.466;11.176;2022-10-26T17:49:12;15.10;99.90
4699;DHT22;33708;49.466;11.176;2022-10-26T17:51:38;15.00;99.90
4699;DHT22;33708;49.466;11.176;2022-10-26T17:54:04;14.90;99.90
4699;DHT22;33708;49.466;11.176;2022-10-26T17:56:31;14.80;99.90
4699;DHT22;33708;49.466;11.176;2022-10-26T17:58:59;14.70;99.90